createdAt,value
2018-12-27T00:00:10.595Z,36.08
2018-12-27T00:02:18.376Z,36.03
2018-12-27T00:04:25.619Z,34.97
2018-12-27T00:06:34.717Z,34.81
2018-12-27T00:08:42.109Z,35.43
2018-12-27T00:10:49.259Z,35.66
2018-12-27T00:12:56.404Z,35.82
2018-12-27T00:15:03.588Z,35.50
2018-12-27T00:17:10.733Z,34.63
2018-12-27T00:19:17.846Z,35.98
2018-12-27T00:21:25.166Z,35.04
2018-12-27T00:23:32.248Z,35.59
2018-12-27T00:25:39.585Z,34.37
2018-12-27T00:27:46.578Z,35.86
2018-12-27T00:29:53.610Z,36.08
2018-12-27T00:32:01.098Z,36.53
2018-12-27T00:34:08.797Z,35.85
2018-12-27T00:36:16.447Z,35.72
2018-12-27T00:38:24.221Z,35.54
2018-12-27T00:40:31.254Z,36.08
2018-12-27T00:42:38.826Z,35.84
2018-12-27T00:44:46.504Z,36.11
2018-12-27T00:46:53.772Z,36.27
2018-12-27T00:49:01.262Z,35.98
2018-12-27T00:51:08.554Z,36.31
2018-12-27T00:53:16.175Z,36.52
2018-12-27T00:55:23.623Z,36.63
2018-12-27T00:57:30.801Z,37.05
2018-12-27T00:59:38.570Z,36.90
2018-12-27T01:01:46.801Z,36.77
2018-12-27T01:03:54.065Z,35.80
2018-12-27T01:06:01.301Z,35.92
2018-12-27T01:08:09.097Z,35.82
2018-12-27T01:10:16.251Z,35.94
2018-12-27T01:12:23.740Z,36.22
2018-12-27T01:14:31.455Z,34.99
2018-12-27T01:16:38.703Z,30.96
2018-12-27T01:18:45.817Z,30.88
2018-12-27T01:20:53.735Z,31.03
2018-12-27T01:23:01.554Z,29.00
2018-12-27T01:25:09.200Z,30.02
2018-12-27T01:27:18.151Z,27.91
2018-12-27T01:29:25.919Z,30.32
2018-12-27T01:31:36.028Z,29.86
2018-12-27T01:33:45.233Z,29.13
2018-12-27T01:35:52.632Z,29.20
2018-12-27T01:37:59.844Z,30.70
2018-12-27T01:40:07.262Z,30.90
2018-12-27T01:42:15.096Z,31.53
2018-12-27T01:44:26.405Z,31.50
2018-12-27T01:46:33.734Z,32.40
2018-12-27T01:48:40.995Z,31.72
2018-12-27T01:50:48.492Z,32.22
2018-12-27T01:52:55.688Z,32.58
2018-12-27T01:55:03.401Z,32.57
2018-12-27T01:57:10.646Z,32.08
2018-12-27T01:59:17.811Z,33.32
2018-12-27T02:01:25.174Z,33.89
2018-12-27T02:03:32.830Z,33.04
2018-12-27T02:05:40.565Z,33.38
2018-12-27T02:07:47.726Z,33.63
2018-12-27T02:09:55.205Z,33.75
2018-12-27T02:12:04.052Z,33.59
2018-12-27T02:14:11.498Z,33.15
2018-12-27T02:16:18.865Z,33.05
2018-12-27T02:18:26.576Z,33.22
2018-12-27T02:20:33.994Z,33.05
2018-12-27T02:22:41.230Z,33.10
2018-12-27T02:24:48.453Z,32.93
2018-12-27T02:26:56.298Z,33.27
2018-12-27T02:29:03.599Z,33.23
2018-12-27T02:31:11.797Z,33.20
2018-12-27T02:33:19.301Z,33.63
2018-12-27T02:35:26.668Z,33.19
2018-12-27T02:37:34.127Z,33.08
2018-12-27T02:39:41.435Z,34.30
2018-12-27T02:41:48.736Z,33.34
2018-12-27T02:43:55.980Z,33.14
2018-12-27T02:46:03.290Z,33.76
2018-12-27T02:48:10.798Z,33.59
2018-12-27T02:50:18.718Z,34.19
2018-12-27T02:52:27.215Z,33.19
2018-12-27T02:54:34.325Z,32.67
2018-12-27T02:56:41.716Z,33.09
2018-12-27T02:58:49.149Z,33.37
2018-12-27T03:00:56.448Z,32.55
2018-12-27T03:03:05.288Z,32.31
2018-12-27T03:05:13.126Z,33.79
2018-12-27T03:07:20.171Z,33.04
2018-12-27T03:09:27.681Z,33.10
2018-12-27T03:11:35.126Z,33.45
2018-12-27T03:13:42.197Z,32.75
2018-12-27T03:15:49.464Z,33.07
2018-12-27T03:17:56.417Z,32.44
2018-12-27T03:20:03.540Z,32.76
2018-12-27T03:22:12.383Z,33.18
2018-12-27T03:24:19.725Z,32.75
2018-12-27T03:26:27.116Z,32.85
2018-12-27T03:28:34.914Z,32.24
2018-12-27T03:30:41.857Z,32.82
2018-12-27T03:32:49.281Z,32.73
2018-12-27T03:34:57.222Z,32.50
2018-12-27T03:37:07.595Z,33.35
2018-12-27T03:39:14.814Z,33.40
2018-12-27T03:41:22.029Z,33.19
2018-12-27T03:43:29.287Z,32.31
2018-12-27T03:45:38.108Z,32.43
2018-12-27T03:47:45.818Z,32.36
2018-12-27T03:49:52.754Z,33.32
2018-12-27T03:52:00.222Z,32.27
2018-12-27T03:54:08.553Z,32.25
2018-12-27T03:56:16.832Z,31.83
2018-12-27T03:58:24.551Z,31.88
2018-12-27T04:00:32.932Z,32.03
2018-12-27T04:02:40.836Z,32.14
2018-12-27T04:04:48.425Z,32.09
2018-12-27T04:06:57.066Z,31.84
2018-12-27T04:09:04.833Z,32.30
2018-12-27T04:11:11.917Z,31.80
2018-12-27T04:13:20.004Z,32.91
2018-12-27T04:15:27.359Z,32.64
2018-12-27T04:17:34.602Z,32.93
2018-12-27T04:19:42.150Z,32.83
2018-12-27T04:21:49.262Z,32.78
2018-12-27T04:23:57.076Z,32.32
2018-12-27T04:26:04.955Z,32.43
2018-12-27T04:28:13.773Z,33.55
2018-12-27T04:30:20.879Z,33.64
2018-12-27T04:32:28.675Z,33.42
2018-12-27T04:34:37.834Z,33.49
2018-12-27T04:36:46.390Z,33.72
2018-12-27T04:38:53.853Z,32.95
2018-12-27T04:41:01.285Z,32.84
2018-12-27T04:43:11.247Z,32.47
2018-12-27T04:45:18.349Z,33.20
2018-12-27T04:47:26.321Z,32.84
2018-12-27T04:49:33.751Z,33.21
2018-12-27T04:51:41.032Z,32.26
2018-12-27T04:56:01.969Z,32.24
2018-12-27T04:58:09.265Z,31.99
2018-12-27T05:00:16.615Z,32.21
2018-12-27T05:02:23.646Z,32.41
2018-12-27T05:04:30.895Z,31.87
2018-12-27T05:06:39.072Z,32.40
2018-12-27T05:08:46.584Z,32.23
2018-12-27T05:10:53.799Z,31.94
2018-12-27T05:13:01.402Z,32.29
2018-12-27T05:15:08.888Z,32.68
2018-12-27T05:17:16.255Z,32.59
2018-12-27T05:19:23.566Z,32.63
2018-12-27T05:21:31.136Z,32.47
2018-12-27T05:23:38.632Z,32.09
2018-12-27T05:25:45.888Z,32.02
2018-12-27T05:27:54.106Z,31.74
2018-12-27T05:30:01.429Z,31.46
2018-12-27T05:32:08.908Z,32.33
2018-12-27T05:34:15.958Z,32.43
2018-12-27T05:36:23.526Z,32.23
2018-12-27T05:38:30.643Z,31.51
2018-12-27T05:40:38.107Z,31.75
2018-12-27T05:42:45.421Z,32.64
2018-12-27T05:44:52.723Z,32.56
2018-12-27T05:47:00.044Z,32.25
2018-12-27T05:49:08.212Z,33.03
2018-12-27T05:51:15.601Z,32.21
2018-12-27T05:53:23.007Z,32.62
2018-12-27T05:55:34.313Z,32.25
2018-12-27T05:57:38.659Z,32.76
2018-12-27T05:59:46.135Z,32.33
2018-12-27T06:01:52.899Z,33.24
2018-12-27T06:04:00.253Z,32.41
2018-12-27T06:06:07.416Z,34.28
2018-12-27T06:08:14.553Z,33.91
2018-12-27T06:10:21.458Z,33.52
2018-12-27T06:12:29.661Z,33.19
2018-12-27T06:14:36.428Z,33.39
2018-12-27T06:16:43.537Z,33.12
2018-12-27T06:18:51.190Z,32.01
2018-12-27T06:20:58.571Z,33.12
2018-12-27T06:23:05.774Z,33.06
2018-12-27T06:25:13.006Z,33.51
2018-12-27T06:27:20.312Z,33.03
2018-12-27T06:29:27.427Z,32.48
2018-12-27T06:31:34.637Z,33.00
2018-12-27T06:33:41.966Z,31.90
2018-12-27T06:35:49.226Z,31.41
2018-12-27T06:37:56.162Z,32.48
2018-12-27T06:40:03.700Z,31.94
2018-12-27T06:42:10.891Z,31.62
2018-12-27T06:44:18.291Z,31.60
2018-12-27T06:46:25.553Z,32.87
2018-12-27T06:48:32.649Z,32.38
2018-12-27T06:50:39.911Z,32.50
2018-12-27T06:52:47.005Z,33.42
2018-12-27T06:54:54.146Z,33.08
2018-12-27T06:57:01.222Z,32.95
2018-12-27T06:59:08.594Z,33.20
2018-12-27T07:01:15.809Z,33.31
2018-12-27T07:03:22.912Z,32.65
2018-12-27T07:05:30.078Z,32.90
2018-12-27T07:07:37.153Z,33.68
2018-12-27T07:09:44.454Z,33.82
2018-12-27T07:12:00.142Z,33.69
2018-12-27T07:14:07.518Z,33.89
2018-12-27T07:16:15.113Z,32.78
2018-12-27T07:18:22.235Z,33.11
2018-12-27T07:20:30.135Z,33.46
2018-12-27T07:22:37.195Z,32.96
2018-12-27T07:24:44.554Z,32.71
2018-12-27T07:26:51.746Z,32.46
2018-12-27T07:28:58.866Z,32.14
2018-12-27T07:31:06.226Z,32.35
2018-12-27T07:33:13.489Z,32.05
2018-12-27T07:35:21.122Z,31.55
2018-12-27T07:37:28.451Z,31.23
2018-12-27T07:39:35.660Z,31.08
2018-12-27T07:41:42.912Z,31.41
2018-12-27T07:43:51.551Z,32.28
2018-12-27T07:45:58.710Z,31.61
2018-12-27T07:48:06.105Z,31.71
2018-12-27T07:50:13.763Z,32.68
2018-12-27T07:52:20.868Z,31.94
2018-12-27T07:54:28.126Z,32.26
2018-12-27T07:56:35.452Z,32.73
2018-12-27T07:58:42.749Z,33.05
2018-12-27T08:00:50.132Z,33.67
2018-12-27T08:02:57.019Z,34.04
2018-12-27T08:05:04.614Z,34.34
2018-12-27T08:07:12.542Z,33.44
2018-12-27T08:09:21.117Z,33.79
2018-12-27T08:11:28.732Z,33.91
2018-12-27T08:13:35.868Z,33.56
2018-12-27T08:15:43.515Z,33.12
2018-12-27T08:17:50.662Z,33.44
2018-12-27T08:19:57.989Z,32.57
2018-12-27T08:22:05.440Z,32.82
2018-12-27T08:24:12.557Z,33.78
2018-12-27T08:26:19.793Z,33.53
2018-12-27T08:28:27.354Z,32.47
2018-12-27T08:30:35.054Z,32.63
2018-12-27T08:32:42.272Z,32.15
2018-12-27T08:34:49.624Z,31.87
2018-12-27T08:36:57.039Z,31.59
2018-12-27T08:39:04.908Z,31.72
2018-12-27T08:41:13.006Z,31.53
2018-12-27T08:43:20.262Z,31.70
2018-12-27T08:45:27.802Z,31.37
2018-12-27T08:47:34.973Z,32.56
2018-12-27T08:49:42.260Z,33.08
2018-12-27T08:51:49.689Z,32.69
2018-12-27T08:53:57.074Z,33.52
2018-12-27T08:56:04.024Z,33.77
2018-12-27T08:58:11.882Z,33.88
2018-12-27T09:00:19.814Z,33.20
2018-12-27T09:02:27.600Z,33.62
2018-12-27T09:04:34.682Z,33.56
2018-12-27T09:06:42.745Z,33.76
2018-12-27T09:08:50.075Z,34.08
2018-12-27T09:10:58.757Z,33.14
2018-12-27T09:13:05.957Z,33.64
2018-12-27T09:15:13.964Z,33.15
2018-12-27T09:17:21.166Z,33.56
2018-12-27T09:19:28.309Z,32.87
2018-12-27T09:21:36.143Z,33.08
2018-12-27T09:23:43.995Z,34.18
2018-12-27T09:25:51.791Z,33.70
2018-12-27T09:27:58.612Z,34.15
2018-12-27T09:30:05.996Z,33.66
2018-12-27T09:32:13.187Z,33.82
2018-12-27T09:34:20.354Z,34.29
2018-12-27T09:36:27.339Z,34.13
2018-12-27T09:38:34.613Z,33.47
2018-12-27T09:40:42.211Z,32.96
2018-12-27T09:42:49.336Z,32.42
2018-12-27T09:44:57.302Z,31.98
2018-12-27T09:47:04.465Z,31.87
2018-12-27T09:49:12.681Z,32.21
2018-12-27T09:51:19.828Z,31.72
2018-12-27T09:53:27.046Z,31.47
2018-12-27T09:55:34.225Z,31.61
2018-12-27T09:57:41.407Z,31.64
2018-12-27T09:59:48.687Z,32.52
2018-12-27T10:01:55.766Z,33.50
2018-12-27T10:04:03.585Z,33.69
2018-12-27T10:06:10.916Z,33.59
2018-12-27T10:08:17.955Z,33.73
2018-12-27T10:10:25.108Z,32.88
2018-12-27T10:12:33.118Z,33.49
2018-12-27T10:14:40.321Z,34.20
2018-12-27T10:16:48.337Z,33.56
2018-12-27T10:18:55.621Z,32.64
2018-12-27T10:21:02.839Z,33.66
2018-12-27T10:23:10.576Z,33.80
2018-12-27T10:25:17.684Z,32.95
2018-12-27T10:27:25.484Z,33.85
2018-12-27T10:29:32.670Z,33.05
2018-12-27T10:31:40.013Z,32.90
2018-12-27T10:33:47.123Z,33.57
2018-12-27T10:35:54.240Z,34.33
2018-12-27T10:38:01.517Z,34.38
2018-12-27T10:40:11.631Z,34.39
2018-12-27T10:42:18.852Z,34.16
2018-12-27T10:44:26.092Z,33.80
2018-12-27T10:46:33.249Z,34.43
2018-12-27T10:48:40.642Z,34.69
2018-12-27T10:50:47.893Z,34.31
2018-12-27T10:52:54.930Z,34.53
2018-12-27T10:55:02.379Z,34.49
2018-12-27T10:57:10.788Z,33.89
2018-12-27T10:59:17.929Z,33.00
2018-12-27T11:01:25.237Z,32.78
2018-12-27T11:03:32.284Z,32.46
2018-12-27T11:05:39.542Z,32.18
2018-12-27T11:07:46.927Z,32.08
2018-12-27T11:09:54.309Z,31.93
2018-12-27T11:12:01.827Z,31.97
2018-12-27T11:14:08.884Z,31.88
2018-12-27T11:16:16.091Z,33.08
2018-12-27T11:18:23.594Z,33.49
2018-12-27T11:20:31.150Z,32.28
2018-12-27T11:22:38.556Z,33.98
2018-12-27T11:24:45.504Z,33.49
2018-12-27T11:26:52.781Z,33.61
2018-12-27T11:29:00.813Z,33.96
2018-12-27T11:31:07.808Z,33.14
2018-12-27T11:33:15.455Z,33.93
2018-12-27T11:35:22.679Z,34.08
2018-12-27T11:37:29.970Z,34.84
2018-12-27T11:39:37.287Z,34.44
2018-12-27T11:41:44.254Z,34.53
2018-12-27T11:43:51.536Z,34.91
2018-12-27T11:45:58.910Z,34.78
2018-12-27T11:48:05.964Z,33.96
2018-12-27T11:50:13.186Z,34.82
2018-12-27T11:52:21.170Z,33.60
2018-12-27T11:54:28.420Z,34.07
2018-12-27T11:56:35.436Z,34.35
2018-12-27T11:58:42.631Z,34.56
2018-12-27T12:00:49.922Z,34.79
2018-12-27T12:02:56.935Z,34.15
2018-12-27T12:05:04.287Z,33.52
2018-12-27T12:07:11.560Z,32.84
2018-12-27T12:09:18.645Z,32.61
2018-12-27T12:11:25.880Z,33.02
2018-12-27T12:13:33.106Z,32.95
2018-12-27T12:15:41.035Z,32.13
2018-12-27T12:17:48.407Z,32.43
2018-12-27T12:19:55.743Z,32.10
2018-12-27T12:22:03.121Z,32.93
2018-12-27T12:24:10.382Z,33.26
2018-12-27T12:26:17.681Z,33.71
2018-12-27T12:28:25.125Z,33.59
2018-12-27T12:30:31.900Z,34.02
2018-12-27T12:32:39.143Z,34.28
2018-12-27T12:34:46.703Z,34.41
2018-12-27T12:36:54.427Z,34.17
2018-12-27T12:39:01.655Z,33.80
2018-12-27T12:41:08.853Z,32.88
2018-12-27T12:43:16.134Z,32.85
2018-12-27T12:45:23.380Z,32.06
2018-12-27T12:47:30.523Z,31.92
2018-12-27T12:49:38.612Z,31.72
2018-12-27T12:51:45.683Z,31.58
2018-12-27T12:53:52.897Z,31.40
2018-12-27T12:56:00.054Z,31.74
2018-12-27T12:58:07.404Z,31.04
2018-12-27T13:00:15.136Z,31.08
2018-12-27T13:02:22.419Z,31.25
2018-12-27T13:04:29.761Z,30.90
2018-12-27T13:06:36.827Z,30.99
2018-12-27T13:08:45.142Z,31.31
2018-12-27T13:10:52.166Z,30.79
2018-12-27T13:13:00.059Z,31.23
2018-12-27T13:15:07.525Z,30.92
2018-12-27T13:17:14.727Z,30.80
2018-12-27T13:19:21.990Z,30.82
2018-12-27T13:21:29.574Z,30.46
2018-12-27T13:23:36.650Z,30.45
2018-12-27T13:25:44.498Z,30.41
2018-12-27T13:27:51.679Z,30.30
2018-12-27T13:29:59.054Z,30.27
2018-12-27T13:32:06.480Z,30.21
2018-12-27T13:34:13.570Z,30.17
2018-12-27T13:36:25.362Z,30.25
2018-12-27T13:38:29.778Z,30.24
2018-12-27T13:40:36.983Z,30.20
2018-12-27T13:42:44.176Z,30.16
2018-12-27T13:44:51.471Z,29.93
2018-12-27T13:46:58.551Z,30.19
2018-12-27T13:49:05.744Z,30.23
2018-12-27T13:51:12.989Z,30.29
2018-12-27T13:53:20.440Z,30.47
2018-12-27T13:55:27.511Z,30.66
2018-12-27T13:57:34.890Z,30.86
2018-12-27T13:59:42.074Z,31.04
2018-12-27T14:01:49.256Z,31.18
2018-12-27T14:03:56.259Z,31.21
2018-12-27T14:06:03.680Z,31.28
2018-12-27T14:08:10.695Z,31.46
2018-12-27T14:10:17.807Z,31.48
2018-12-27T14:12:24.976Z,31.57
2018-12-27T14:14:52.801Z,31.62
2018-12-27T14:17:24.972Z,31.36
2018-12-27T14:19:33.435Z,31.15
2018-12-27T14:22:15.979Z,31.12
2018-12-27T14:26:55.354Z,31.35
2018-12-27T14:29:03.054Z,31.21
2018-12-27T14:31:10.554Z,30.68
2018-12-27T14:33:17.964Z,30.56
2018-12-27T14:35:25.602Z,31.11
2018-12-27T14:37:33.424Z,30.38
2018-12-27T14:39:40.602Z,30.44
2018-12-27T14:41:48.361Z,30.68
2018-12-27T14:43:55.875Z,30.76
2018-12-27T14:46:03.554Z,30.86
2018-12-27T14:48:11.489Z,31.11
2018-12-27T14:50:18.643Z,31.17
2018-12-27T14:52:26.578Z,31.29
2018-12-27T14:54:34.475Z,31.44
2018-12-27T14:56:41.809Z,31.28
2018-12-27T14:58:50.407Z,31.40
2018-12-27T15:00:57.581Z,31.67
2018-12-27T15:03:04.719Z,31.77
2018-12-27T15:05:13.627Z,31.73
2018-12-27T15:07:21.038Z,31.71
2018-12-27T15:09:28.109Z,31.68
2018-12-27T15:11:35.284Z,31.95
2018-12-27T15:13:42.439Z,31.73
2018-12-27T15:15:49.401Z,31.57
2018-12-27T15:17:56.402Z,31.37
2018-12-27T15:20:04.745Z,31.22
2018-12-27T15:22:12.406Z,30.98
2018-12-27T15:24:20.047Z,30.80
2018-12-27T15:26:27.499Z,30.79
2018-12-27T15:28:34.202Z,31.03
2018-12-27T15:30:40.974Z,31.46
2018-12-27T15:32:48.430Z,31.75
2018-12-27T15:34:55.588Z,30.94
2018-12-27T15:37:02.281Z,31.17
